createdAt,value
2018-09-13T00:00:21.818Z,0
2018-09-13T00:01:21.661Z,0
2018-09-13T00:02:21.610Z,0
2018-09-13T00:03:21.738Z,0
2018-09-13T00:04:21.676Z,0
2018-09-13T00:05:21.874Z,0
2018-09-13T00:06:21.585Z,0
2018-09-13T00:07:21.680Z,0
2018-09-13T00:08:21.656Z,0
2018-09-13T00:09:21.632Z,0
2018-09-13T00:10:21.578Z,0
2018-09-13T00:11:23.024Z,0
2018-09-13T00:12:21.613Z,0
2018-09-13T00:13:21.689Z,0
2018-09-13T00:14:21.646Z,0
2018-09-13T00:15:21.677Z,0
2018-09-13T00:16:21.710Z,0
2018-09-13T00:17:23.129Z,0
2018-09-13T00:18:22.027Z,0
2018-09-13T00:19:21.742Z,0
2018-09-13T00:20:21.683Z,0
2018-09-13T00:21:21.681Z,0
2018-09-13T00:22:21.774Z,0
2018-09-13T00:27:38.036Z,0
2018-09-13T00:27:50.309Z,0
2018-09-13T00:28:51.520Z,0
2018-09-13T00:30:00.278Z,0
2018-09-13T00:30:51.869Z,0
2018-09-13T00:31:50.665Z,0
2018-09-13T00:32:50.321Z,0
2018-09-13T00:33:50.492Z,0
2018-09-13T00:34:50.399Z,0
2018-09-13T00:35:50.310Z,0
2018-09-13T00:36:50.310Z,0
2018-09-13T00:37:50.627Z,0
2018-09-13T00:38:50.294Z,0
2018-09-13T00:39:50.321Z,0
2018-09-13T00:40:50.297Z,0
2018-09-13T00:41:50.313Z,0
2018-09-13T00:42:50.353Z,0
2018-09-13T00:43:50.627Z,0
2018-09-13T00:44:50.342Z,0
2018-09-13T00:46:54.852Z,0
2018-09-13T00:53:34.202Z,0
2018-09-13T00:53:46.488Z,0
2018-09-13T00:54:46.477Z,0
2018-09-13T00:55:46.611Z,0
2018-09-13T00:56:46.483Z,0
2018-09-13T00:57:46.454Z,0
2018-09-13T00:58:46.864Z,0
2018-09-13T00:59:46.605Z,0
2018-09-13T01:00:46.508Z,0
2018-09-13T01:01:46.551Z,0
2018-09-13T01:02:46.560Z,0
2018-09-13T01:03:46.518Z,0
2018-09-13T01:04:46.985Z,0
2018-09-13T01:05:46.538Z,0
2018-09-13T01:06:46.624Z,0
2018-09-13T01:07:46.555Z,0
2018-09-13T01:08:46.569Z,0
2018-09-13T01:09:46.523Z,0
2018-09-13T01:10:46.809Z,0
2018-09-13T01:11:46.579Z,0
2018-09-13T01:12:46.531Z,0
2018-09-13T01:13:46.555Z,0
2018-09-13T01:14:46.578Z,0
2018-09-13T01:15:46.540Z,0
2018-09-13T01:16:47.869Z,0
2018-09-13T01:17:46.520Z,0
2018-09-13T01:18:46.547Z,0
2018-09-13T01:19:46.594Z,0
2018-09-13T01:20:46.537Z,0
2018-09-13T01:21:46.503Z,0
2018-09-13T01:22:46.935Z,0
2018-09-13T01:23:46.579Z,0
2018-09-13T01:24:46.524Z,0
2018-09-13T01:25:46.563Z,0
2018-09-13T01:26:46.637Z,0
2018-09-13T01:27:46.603Z,0
2018-09-13T01:28:46.930Z,0
2018-09-13T01:29:46.525Z,0
2018-09-13T01:30:46.603Z,0
2018-09-13T01:31:46.571Z,0
2018-09-13T01:32:46.537Z,0
2018-09-13T01:33:46.686Z,0
2018-09-13T01:34:46.897Z,0
2018-09-13T01:35:46.640Z,0
2018-09-13T01:36:46.584Z,0
2018-09-13T01:37:46.622Z,0
2018-09-13T01:38:46.590Z,0
2018-09-13T01:39:46.623Z,0
2018-09-13T01:40:46.931Z,0
2018-09-13T01:41:46.596Z,0
2018-09-13T01:42:46.579Z,0
2018-09-13T01:43:46.583Z,0
2018-09-13T01:44:46.562Z,0
2018-09-13T01:45:46.554Z,0
2018-09-13T01:46:47.344Z,0
2018-09-13T01:47:47.157Z,0
2018-09-13T01:48:46.823Z,0
2018-09-13T01:49:46.927Z,0
2018-09-13T01:50:46.555Z,0
2018-09-13T01:51:46.640Z,0
2018-09-13T01:52:50.457Z,0
2018-09-13T01:53:46.642Z,0
2018-09-13T01:54:46.579Z,0
2018-09-13T01:55:46.620Z,0
2018-09-13T01:56:46.645Z,0
2018-09-13T01:57:46.599Z,0
2018-09-13T01:58:46.914Z,0
2018-09-13T01:59:46.632Z,0
2018-09-13T02:00:46.574Z,0
2018-09-13T02:01:46.699Z,0
2018-09-13T02:02:46.645Z,0
2018-09-13T02:03:46.623Z,0
2018-09-13T02:04:46.991Z,0
2018-09-13T02:05:46.600Z,0
2018-09-13T02:06:46.657Z,0
2018-09-13T02:07:46.697Z,0
2018-09-13T02:08:46.607Z,0
2018-09-13T02:09:46.594Z,0
2018-09-13T02:10:47.103Z,0
2018-09-13T02:11:46.641Z,0
2018-09-13T02:12:46.644Z,0
2018-09-13T02:13:46.578Z,0
2018-09-13T02:14:46.681Z,0
2018-09-13T02:15:46.905Z,0
2018-09-13T02:16:46.933Z,0
2018-09-13T02:17:46.634Z,0
2018-09-13T02:18:46.604Z,0
2018-09-13T02:19:46.653Z,0
2018-09-13T02:20:46.631Z,0
2018-09-13T02:21:46.626Z,0
2018-09-13T02:22:47.112Z,0
2018-09-13T02:23:46.667Z,0
2018-09-13T02:24:46.578Z,0
2018-09-13T02:25:46.687Z,0
2018-09-13T02:26:46.730Z,0
2018-09-13T02:27:46.604Z,0
2018-09-13T02:28:46.711Z,0
2018-09-13T02:29:46.702Z,0
2018-09-13T02:30:47.025Z,0
2018-09-13T02:31:46.864Z,0
2018-09-13T02:32:46.734Z,0
2018-09-13T02:33:46.707Z,0
2018-09-13T02:34:46.706Z,0
2018-09-13T02:35:46.711Z,0
2018-09-13T02:36:46.682Z,0
2018-09-13T02:37:46.725Z,0
2018-09-13T02:38:46.661Z,0
2018-09-13T02:39:46.988Z,0
2018-09-13T02:40:46.620Z,0
2018-09-13T02:41:46.753Z,0
2018-09-13T02:42:46.728Z,0
2018-09-13T02:43:46.642Z,0
2018-09-13T02:44:46.615Z,0
2018-09-13T02:45:47.319Z,0
2018-09-13T02:46:46.675Z,0
2018-09-13T02:47:46.942Z,0
2018-09-13T02:48:46.927Z,0
2018-09-13T02:49:46.935Z,0
2018-09-13T02:50:46.710Z,0
2018-09-13T02:51:47.102Z,0
2018-09-13T02:52:46.732Z,0
2018-09-13T02:58:03.712Z,0
2018-09-13T02:58:16.116Z,0
2018-09-13T02:59:16.187Z,0
2018-09-13T03:00:16.024Z,0
2018-09-13T03:01:16.046Z,0
2018-09-13T03:02:16.078Z,0
2018-09-13T03:03:16.398Z,0
2018-09-13T03:04:16.043Z,0
2018-09-13T03:05:16.067Z,0
2018-09-13T03:06:16.060Z,0
2018-09-13T03:07:16.086Z,0
2018-09-13T03:08:16.125Z,0
2018-09-13T03:09:17.376Z,0
2018-09-13T03:10:16.299Z,0
2018-09-13T03:11:16.114Z,0
2018-09-13T03:12:16.008Z,0
2018-09-13T03:13:16.125Z,0
2018-09-13T03:14:16.071Z,0
2018-09-13T03:15:16.564Z,0
2018-09-13T03:16:16.128Z,0
2018-09-13T03:17:16.133Z,0
2018-09-13T03:18:16.078Z,0
2018-09-13T03:19:16.042Z,0
2018-09-13T03:20:16.042Z,0
2018-09-13T03:21:16.459Z,0
2018-09-13T03:22:16.059Z,0
2018-09-13T03:23:16.070Z,0
2018-09-13T03:24:16.050Z,0
2018-09-13T03:25:16.114Z,0
2018-09-13T03:26:16.394Z,0
2018-09-13T03:27:16.370Z,0
2018-09-13T03:28:16.073Z,0
2018-09-13T03:29:16.100Z,0
2018-09-13T03:30:16.195Z,0
2018-09-13T03:31:16.049Z,0
2018-09-13T03:32:16.058Z,0
2018-09-13T03:33:16.417Z,0
2018-09-13T03:34:16.113Z,0
2018-09-13T03:35:16.083Z,0
2018-09-13T03:36:16.127Z,0
2018-09-13T03:37:16.036Z,0
2018-09-13T03:38:16.071Z,0
2018-09-13T03:39:16.078Z,0
2018-09-13T03:40:16.086Z,0
2018-09-13T03:41:16.086Z,0
2018-09-13T03:42:16.650Z,0
2018-09-13T03:43:16.098Z,0
2018-09-13T03:44:17.407Z,0
2018-09-13T03:45:16.478Z,0
2018-09-13T03:46:16.126Z,0
2018-09-13T03:47:16.367Z,0
2018-09-13T03:48:16.069Z,0
2018-09-13T03:49:16.043Z,0
2018-09-13T03:50:16.426Z,0
2018-09-13T03:51:16.061Z,0
2018-09-13T03:52:16.420Z,0
2018-09-13T03:53:16.152Z,0
2018-09-13T03:54:16.102Z,0
2018-09-13T03:55:16.449Z,0
2018-09-13T03:56:16.434Z,0
2018-09-13T03:57:16.401Z,0
2018-09-13T03:58:16.157Z,0
2018-09-13T03:59:16.059Z,0
2018-09-13T04:00:16.219Z,0
2018-09-13T04:01:16.255Z,0
2018-09-13T04:02:16.430Z,0
2018-09-13T04:03:16.187Z,0
2018-09-13T04:04:16.123Z,0
2018-09-13T04:05:20.966Z,0
2018-09-13T04:06:16.433Z,0
2018-09-13T04:07:16.215Z,0
2018-09-13T04:08:16.593Z,0
2018-09-13T04:09:16.433Z,0
2018-09-13T04:10:16.141Z,0
2018-09-13T04:11:16.147Z,0
2018-09-13T04:12:16.141Z,0
2018-09-13T04:19:45.905Z,0
2018-09-13T04:19:58.216Z,0
2018-09-13T04:20:58.178Z,0
2018-09-13T04:28:26.383Z,0
2018-09-13T04:28:38.720Z,0
2018-09-13T04:29:38.621Z,0
2018-09-13T04:30:38.659Z,0
2018-09-13T04:38:05.616Z,0
2018-09-13T04:38:17.864Z,0
2018-09-13T04:39:17.838Z,4
2018-09-13T04:40:17.887Z,4
2018-09-13T04:41:17.910Z,4
2018-09-13T04:42:17.885Z,4
2018-09-13T04:43:18.208Z,0
2018-09-13T04:48:35.494Z,4
2018-09-13T04:55:16.747Z,12
2018-09-13T04:55:30.086Z,12
2018-09-13T04:56:29.374Z,12
2018-09-13T04:57:29.084Z,12
2018-09-13T04:58:29.160Z,16
2018-09-13T04:59:29.569Z,16
2018-09-13T05:00:29.712Z,20
2018-09-13T05:01:29.104Z,24
2018-09-13T05:02:29.496Z,24
2018-09-13T05:03:29.115Z,24
2018-09-13T05:04:29.091Z,28
2018-09-13T05:05:29.093Z,28
2018-09-13T05:06:29.480Z,28
2018-09-13T05:07:29.249Z,32
2018-09-13T05:08:29.102Z,36
2018-09-13T05:09:29.196Z,40
2018-09-13T05:10:29.332Z,44
2018-09-13T05:11:29.155Z,48
2018-09-13T05:12:29.451Z,52
2018-09-13T05:13:29.163Z,56
2018-09-13T05:14:29.145Z,64
2018-09-13T05:15:29.106Z,64
2018-09-13T05:16:29.177Z,72
2018-09-13T05:17:29.173Z,76
2018-09-13T05:18:29.490Z,80
2018-09-13T05:19:29.173Z,84
2018-09-13T05:20:29.168Z,92
2018-09-13T05:21:29.232Z,96
2018-09-13T05:22:29.124Z,100
2018-09-13T05:23:29.151Z,108
2018-09-13T05:24:29.768Z,116
2018-09-13T05:25:29.162Z,120
2018-09-13T05:26:29.135Z,124
2018-09-13T05:27:29.145Z,124
2018-09-13T05:28:29.153Z,124
2018-09-13T05:29:29.189Z,128
2018-09-13T05:30:29.453Z,132
2018-09-13T05:31:29.275Z,136
2018-09-13T05:32:29.228Z,140
2018-09-13T05:33:29.236Z,144
2018-09-13T05:34:29.122Z,148
2018-09-13T05:35:29.194Z,152
2018-09-13T05:36:31.542Z,152
2018-09-13T05:37:29.345Z,156
2018-09-13T05:38:29.268Z,160
2018-09-13T05:39:29.143Z,168
2018-09-13T05:40:29.144Z,176
2018-09-13T05:41:29.231Z,184
2018-09-13T05:42:29.631Z,188
2018-09-13T05:43:29.200Z,192
2018-09-13T05:44:29.284Z,196
2018-09-13T05:45:29.217Z,200
2018-09-13T05:46:29.219Z,200
2018-09-13T05:47:29.197Z,208
2018-09-13T05:48:29.607Z,216
2018-09-13T05:49:29.276Z,228
2018-09-13T05:50:29.229Z,240
2018-09-13T05:51:29.287Z,244
2018-09-13T05:52:29.270Z,244
2018-09-13T05:53:29.542Z,252
2018-09-13T05:54:29.770Z,256
2018-09-13T05:55:29.208Z,260
2018-09-13T05:56:29.232Z,264
2018-09-13T05:57:29.216Z,268
2018-09-13T05:58:29.431Z,276
2018-09-13T05:59:29.304Z,280
2018-09-13T06:00:29.544Z,280
2018-09-13T06:01:29.384Z,284
2018-09-13T06:08:57.215Z,288
2018-09-13T06:09:09.552Z,300
2018-09-13T06:10:09.540Z,300
2018-09-13T06:11:09.556Z,304
2018-09-13T06:18:35.517Z,468
2018-09-13T06:18:47.796Z,484
2018-09-13T06:19:47.850Z,504
2018-09-13T06:20:47.751Z,552
2018-09-13T06:21:47.792Z,660
2018-09-13T06:22:47.763Z,736
2018-09-13T06:23:48.071Z,764
2018-09-13T06:24:47.775Z,720
2018-09-13T06:25:47.768Z,756
2018-09-13T06:26:47.827Z,800
2018-09-13T06:27:47.844Z,888
2018-09-13T06:28:47.782Z,852
2018-09-13T06:29:48.256Z,700
2018-09-13T06:30:47.777Z,796
2018-09-13T06:31:47.850Z,992
2018-09-13T06:32:47.980Z,980
2018-09-13T06:33:47.890Z,916
2018-09-13T06:34:48.094Z,620
2018-09-13T06:35:47.794Z,500
2018-09-13T06:36:48.121Z,572
2018-09-13T06:37:47.871Z,700
2018-09-13T06:38:47.798Z,680
2018-09-13T06:39:47.948Z,704
2018-09-13T06:40:48.418Z,640
2018-09-13T06:41:47.876Z,932
2018-09-13T06:42:47.861Z,1316
2018-09-13T06:43:47.797Z,608
2018-09-13T06:44:47.875Z,436
2018-09-13T06:45:47.858Z,424
2018-09-13T06:46:47.804Z,468
2018-09-13T06:47:48.186Z,424
2018-09-13T06:49:22.630Z,500
2018-09-13T06:49:47.824Z,456
2018-09-13T06:50:48.110Z,488
2018-09-13T06:51:47.870Z,544
2018-09-13T06:52:47.821Z,812
2018-09-13T06:53:48.152Z,640
2018-09-13T06:54:47.789Z,788
2018-09-13T06:55:47.909Z,1912
2018-09-13T06:56:47.804Z,1620
2018-09-13T06:57:48.099Z,1020
2018-09-13T07:00:07.866Z,452
2018-09-13T07:09:44.106Z,272
2018-09-13T07:09:56.414Z,276
2018-09-13T07:10:56.504Z,276
2018-09-13T07:11:56.647Z,272
2018-09-13T07:12:56.416Z,288
2018-09-13T07:13:56.334Z,376
2018-09-13T07:14:56.682Z,312
2018-09-13T07:15:56.676Z,308
2018-09-13T07:16:56.538Z,284
2018-09-13T07:17:56.396Z,240
2018-09-13T07:18:56.376Z,220
2018-09-13T07:19:56.485Z,208
2018-09-13T07:20:57.010Z,184
2018-09-13T07:21:56.358Z,168
2018-09-13T07:22:56.483Z,152
2018-09-13T07:23:56.676Z,148
2018-09-13T07:24:56.416Z,148
2018-09-13T07:25:56.680Z,152
2018-09-13T07:26:56.713Z,160
2018-09-13T07:27:56.734Z,160
2018-09-13T07:28:56.381Z,152
2018-09-13T07:29:56.698Z,148
2018-09-13T07:30:56.813Z,140
2018-09-13T07:31:56.392Z,136
2018-09-13T07:32:56.367Z,128
2018-09-13T07:33:56.451Z,116
2018-09-13T07:34:56.419Z,104
2018-09-13T07:35:56.467Z,96
2018-09-13T07:36:56.599Z,92
2018-09-13T07:37:56.461Z,92
2018-09-13T07:38:56.729Z,84
2018-09-13T07:39:56.455Z,84
2018-09-13T07:40:56.417Z,84
2018-09-13T07:41:56.778Z,80
2018-09-13T07:42:56.617Z,80
2018-09-13T07:43:56.469Z,76
2018-09-13T07:44:56.731Z,76
2018-09-13T07:45:56.422Z,76
2018-09-13T07:46:56.426Z,72
2018-09-13T07:47:56.436Z,72
2018-09-13T07:48:56.472Z,76
2018-09-13T07:49:56.656Z,76
2018-09-13T07:50:56.891Z,84
2018-09-13T07:51:56.416Z,88
2018-09-13T07:52:56.435Z,92
2018-09-13T07:53:56.502Z,100
2018-09-13T07:54:56.480Z,104
2018-09-13T07:55:56.510Z,112
2018-09-13T07:56:56.824Z,120
2018-09-13T07:57:56.467Z,132
2018-09-13T07:58:56.535Z,136
2018-09-13T07:59:56.487Z,140
2018-09-13T08:00:56.493Z,140
2018-09-13T08:01:56.449Z,144
2018-09-13T08:02:56.757Z,148
2018-09-13T08:03:56.514Z,152
2018-09-13T08:04:56.710Z,148
2018-09-13T08:05:56.400Z,152
2018-09-13T08:06:56.496Z,152
2018-09-13T08:07:56.556Z,152
2018-09-13T08:08:56.813Z,156
2018-09-13T08:09:56.465Z,152
2018-09-13T08:10:56.537Z,148
2018-09-13T08:11:56.736Z,144
2018-09-13T08:12:56.501Z,144
2018-09-13T08:13:56.508Z,144
2018-09-13T08:14:56.803Z,140
2018-09-13T08:15:56.821Z,140
2018-09-13T08:16:56.447Z,136
2018-09-13T08:17:56.502Z,132
2018-09-13T08:18:56.519Z,132
2018-09-13T08:19:56.460Z,136
2018-09-13T08:20:56.890Z,136
2018-09-13T08:21:56.697Z,140
2018-09-13T08:22:56.465Z,144
2018-09-13T08:23:56.531Z,148
2018-09-13T08:24:56.460Z,148
2018-09-13T08:25:56.537Z,144
2018-09-13T08:26:58.146Z,144
2018-09-13T08:27:56.564Z,144
2018-09-13T08:28:56.498Z,144
2018-09-13T08:29:56.575Z,144
2018-09-13T08:30:56.837Z,148
2018-09-13T08:31:56.546Z,152
2018-09-13T08:32:57.801Z,156
2018-09-13T08:33:56.523Z,164
2018-09-13T08:34:56.824Z,172
2018-09-13T08:35:56.509Z,184
2018-09-13T08:36:56.997Z,192
2018-09-13T08:37:57.121Z,200
2018-09-13T08:38:56.592Z,204
2018-09-13T08:39:57.035Z,208
2018-09-13T08:40:56.509Z,212
2018-09-13T08:41:56.540Z,212
2018-09-13T08:42:56.596Z,212
2018-09-13T08:43:56.525Z,212
2018-09-13T08:44:56.949Z,216
2018-09-13T08:45:56.598Z,220
2018-09-13T08:46:56.574Z,224
2018-09-13T08:47:56.519Z,228
2018-09-13T08:48:56.562Z,232
2018-09-13T08:49:56.778Z,240
2018-09-13T08:50:56.833Z,244
2018-09-13T08:51:56.740Z,244
2018-09-13T08:52:56.481Z,252
2018-09-13T08:53:56.566Z,256
2018-09-13T08:54:56.570Z,260
2018-09-13T08:55:56.573Z,260
2018-09-13T08:56:56.859Z,256
2018-09-13T08:57:56.573Z,248
2018-09-13T08:58:56.881Z,244
2018-09-13T08:59:56.656Z,240
2018-09-13T09:00:56.697Z,244
2018-09-13T09:01:56.686Z,244
2018-09-13T09:02:56.933Z,252
2018-09-13T09:03:56.622Z,256
2018-09-13T09:04:56.637Z,264
2018-09-13T09:05:56.599Z,276
2018-09-13T09:06:56.545Z,304
2018-09-13T09:07:56.596Z,304
2018-09-13T09:08:56.996Z,288
2018-09-13T09:09:56.582Z,284
2018-09-13T09:10:56.555Z,284
2018-09-13T09:11:56.762Z,280
2018-09-13T09:12:56.616Z,272
2018-09-13T09:13:56.579Z,268
2018-09-13T09:14:56.896Z,268
2018-09-13T09:15:56.595Z,264
2018-09-13T09:16:56.672Z,260
2018-09-13T09:17:56.599Z,256
2018-09-13T09:18:56.613Z,248
2018-09-13T09:19:56.602Z,240
2018-09-13T09:20:56.871Z,232
2018-09-13T09:21:56.615Z,228
2018-09-13T09:22:56.564Z,216
2018-09-13T09:23:56.664Z,220
2018-09-13T09:24:56.586Z,220
2018-09-13T09:25:56.589Z,224
2018-09-13T09:26:56.944Z,228
2018-09-13T09:27:56.706Z,240
2018-09-13T09:28:56.865Z,244
2018-09-13T09:29:56.751Z,256
2018-09-13T09:30:56.605Z,268
2018-09-13T09:31:56.928Z,276
2018-09-13T09:32:56.982Z,288
2018-09-13T09:33:56.611Z,304
2018-09-13T09:34:57.037Z,312
2018-09-13T09:35:56.582Z,324
2018-09-13T09:36:56.612Z,340
2018-09-13T09:37:56.604Z,352
2018-09-13T09:38:57.270Z,368
2018-09-13T09:39:56.755Z,380
2018-09-13T09:40:56.624Z,392
2018-09-13T09:41:56.625Z,396
2018-09-13T09:42:56.979Z,404
2018-09-13T09:43:56.770Z,408
2018-09-13T09:44:56.734Z,416
2018-09-13T09:45:56.645Z,420
2018-09-13T09:46:56.687Z,420
2018-09-13T09:47:56.747Z,412
2018-09-13T09:48:56.707Z,396
2018-09-13T09:49:56.678Z,380
2018-09-13T09:50:56.895Z,364
2018-09-13T09:51:56.745Z,348
2018-09-13T09:52:56.703Z,336
2018-09-13T09:53:56.605Z,324
2018-09-13T09:54:56.687Z,312
2018-09-13T09:55:56.654Z,304
2018-09-13T09:56:57.023Z,304
2018-09-13T09:57:56.797Z,296
2018-09-13T09:58:56.694Z,296
2018-09-13T09:59:56.623Z,296
2018-09-13T10:00:56.680Z,296
2018-09-13T10:01:56.597Z,296
2018-09-13T10:02:57.108Z,300
2018-09-13T10:03:56.886Z,304
2018-09-13T10:04:56.667Z,308
2018-09-13T10:05:56.626Z,320
2018-09-13T10:06:56.722Z,332
2018-09-13T10:07:56.618Z,356
2018-09-13T10:08:56.985Z,372
2018-09-13T10:09:56.675Z,392
2018-09-13T10:10:56.691Z,416
2018-09-13T10:11:56.676Z,428
2018-09-13T10:12:56.660Z,436
2018-09-13T10:13:56.661Z,444
2018-09-13T10:14:56.978Z,452
2018-09-13T10:15:57.044Z,464
2018-09-13T10:16:56.714Z,484
2018-09-13T10:17:56.684Z,504
2018-09-13T10:18:56.692Z,524
2018-09-13T10:19:56.683Z,544
2018-09-13T10:21:36.275Z,592
2018-09-13T10:21:56.757Z,584
2018-09-13T10:22:56.787Z,568
2018-09-13T10:23:57.034Z,560
2018-09-13T10:24:56.702Z,560
2018-09-13T10:25:56.677Z,564
2018-09-13T10:26:57.205Z,544
2018-09-13T10:27:56.735Z,528
2018-09-13T10:28:56.657Z,512
2018-09-13T10:29:56.908Z,484
2018-09-13T10:30:56.710Z,460
2018-09-13T10:31:56.691Z,440
2018-09-13T10:32:58.056Z,420
2018-09-13T10:33:56.726Z,392
2018-09-13T10:34:56.711Z,368
2018-09-13T10:35:56.787Z,348
2018-09-13T10:36:56.757Z,336
2018-09-13T10:37:56.758Z,328
2018-09-13T10:38:57.077Z,324
2018-09-13T10:39:56.771Z,324
2018-09-13T10:40:56.800Z,328
2018-09-13T10:41:56.712Z,332
2018-09-13T10:42:56.750Z,336
2018-09-13T10:43:57.003Z,340
2018-09-13T10:44:57.087Z,348
2018-09-13T10:45:56.900Z,360
2018-09-13T10:46:56.754Z,380
2018-09-13T10:47:57.156Z,392
2018-09-13T10:48:56.754Z,404
2018-09-13T10:49:56.793Z,416
2018-09-13T10:50:58.109Z,428
2018-09-13T10:51:56.737Z,436
2018-09-13T10:52:56.744Z,440
2018-09-13T10:53:56.679Z,448
2018-09-13T10:54:56.737Z,456
2018-09-13T10:55:56.901Z,460
2018-09-13T10:57:00.678Z,468
2018-09-13T10:57:56.742Z,476
2018-09-13T10:58:56.819Z,484
2018-09-13T10:59:56.802Z,480
2018-09-13T11:00:56.781Z,476
2018-09-13T11:01:56.776Z,464
2018-09-13T11:02:58.040Z,452
2018-09-13T11:03:56.837Z,436
2018-09-13T11:04:56.793Z,420
2018-09-13T11:05:56.813Z,404
2018-09-13T11:06:56.774Z,388
2018-09-13T11:07:56.765Z,376
2018-09-13T11:08:57.070Z,368
2018-09-13T11:09:56.822Z,368
2018-09-13T11:10:57.044Z,368
2018-09-13T11:11:56.800Z,368
2018-09-13T11:12:56.772Z,368
2018-09-13T11:13:56.797Z,368
2018-09-13T11:14:57.069Z,360
2018-09-13T11:15:56.775Z,356
2018-09-13T11:16:57.088Z,356
2018-09-13T11:22:14.237Z,376
2018-09-13T11:22:26.495Z,380
2018-09-13T11:23:26.501Z,392
2018-09-13T11:24:26.610Z,408
2018-09-13T11:28:56.263Z,492
2018-09-13T11:29:56.164Z,492
2018-09-13T11:30:56.212Z,496
2018-09-13T11:31:56.178Z,496
2018-09-13T11:32:56.536Z,496
2018-09-13T11:33:56.204Z,492
2018-09-13T11:34:56.210Z,492
2018-09-13T11:35:56.853Z,492
2018-09-13T11:36:56.223Z,496
2018-09-13T11:37:56.436Z,500
2018-09-13T11:38:56.516Z,508
2018-09-13T11:39:56.447Z,528
2018-09-13T11:40:56.890Z,544
2018-09-13T11:41:56.277Z,564
2018-09-13T11:42:56.233Z,564
2018-09-13T11:43:56.225Z,552
2018-09-13T11:44:56.582Z,536
2018-09-13T11:45:56.241Z,524
2018-09-13T11:46:56.477Z,532
2018-09-13T11:47:56.228Z,660
2018-09-13T11:48:56.275Z,552
2018-09-13T11:49:56.244Z,532
2018-09-13T11:50:56.546Z,516
2018-09-13T11:51:56.273Z,508
2018-09-13T11:52:56.500Z,496
2018-09-13T11:53:56.510Z,472
2018-09-13T11:54:56.189Z,448
2018-09-13T11:55:56.305Z,432
2018-09-13T11:56:56.522Z,424
2018-09-13T11:57:56.276Z,432
2018-09-13T11:58:56.530Z,444
2018-09-13T11:59:56.257Z,456
2018-09-13T12:00:56.317Z,460
2018-09-13T12:01:56.377Z,464
2018-09-13T12:02:56.561Z,460
2018-09-13T12:03:56.268Z,464
2018-09-13T12:04:56.298Z,472
2018-09-13T12:05:56.457Z,516
2018-09-13T12:06:56.304Z,572
2018-09-13T12:07:56.320Z,636
2018-09-13T12:08:56.588Z,760
2018-09-13T12:09:56.288Z,732
2018-09-13T12:10:56.304Z,680
2018-09-13T12:11:56.546Z,1004
2018-09-13T12:12:56.496Z,624
2018-09-13T12:13:56.318Z,576
2018-09-13T12:14:56.606Z,572
2018-09-13T12:15:56.306Z,608
2018-09-13T12:16:56.506Z,656
2018-09-13T12:17:56.503Z,672
2018-09-13T12:18:56.401Z,808
2018-09-13T12:19:56.323Z,904
2018-09-13T12:20:56.603Z,864
2018-09-13T12:21:56.576Z,1352
2018-09-13T12:22:56.311Z,988
2018-09-13T12:23:56.317Z,836
2018-09-13T12:24:56.329Z,692
2018-09-13T12:25:56.338Z,696
2018-09-13T12:26:56.693Z,632
2018-09-13T12:27:56.621Z,616
2018-09-13T12:28:56.314Z,612
2018-09-13T12:29:56.432Z,576
2018-09-13T12:30:56.324Z,556
2018-09-13T12:31:56.399Z,544
2018-09-13T12:32:56.588Z,536
2018-09-13T12:33:56.417Z,528
2018-09-13T12:34:56.421Z,524
2018-09-13T12:35:56.374Z,512
2018-09-13T12:36:56.344Z,512
2018-09-13T12:37:56.334Z,504
2018-09-13T12:38:56.805Z,500
2018-09-13T12:39:56.603Z,484
2018-09-13T12:40:56.317Z,468
2018-09-13T12:41:57.257Z,456
2018-09-13T12:42:56.409Z,448
2018-09-13T12:43:56.356Z,440
2018-09-13T12:44:56.977Z,444
2018-09-13T12:45:56.333Z,448
2018-09-13T12:46:56.276Z,440
2018-09-13T12:47:56.321Z,436
2018-09-13T12:48:56.385Z,436
2018-09-13T12:49:56.567Z,432
2018-09-13T12:50:56.739Z,432
2018-09-13T12:51:56.402Z,428
2018-09-13T12:52:56.374Z,448
2018-09-13T12:53:56.348Z,468
2018-09-13T12:54:56.376Z,488
2018-09-13T12:55:56.373Z,496
2018-09-13T12:56:57.988Z,496
2018-09-13T12:57:56.388Z,496
2018-09-13T12:58:56.375Z,496
2018-09-13T12:59:56.312Z,484
2018-09-13T13:00:56.401Z,476
2018-09-13T13:01:56.322Z,464
2018-09-13T13:02:56.674Z,460
2018-09-13T13:03:56.399Z,452
2018-09-13T13:04:56.372Z,460
2018-09-13T13:05:56.397Z,460
2018-09-13T13:06:56.467Z,476
2018-09-13T13:07:56.678Z,500
2018-09-13T13:09:00.886Z,588
2018-09-13T13:09:58.661Z,636
2018-09-13T13:10:56.343Z,1012
2018-09-13T13:11:57.275Z,836
2018-09-13T13:12:56.407Z,744
2018-09-13T13:13:56.387Z,672
2018-09-13T13:14:56.644Z,628
2018-09-13T13:15:56.414Z,704
2018-09-13T13:16:56.514Z,644
2018-09-13T13:17:56.367Z,648
2018-09-13T13:18:56.449Z,640
2018-09-13T13:19:56.473Z,692
2018-09-13T13:20:56.701Z,952
2018-09-13T13:21:56.384Z,756
2018-09-13T13:22:56.391Z,1136
2018-09-13T13:23:56.398Z,712
2018-09-13T13:24:56.420Z,612
2018-09-13T13:25:56.378Z,620
2018-09-13T13:33:23.675Z,1056
2018-09-13T13:33:35.928Z,812
2018-09-13T13:34:36.011Z,680
2018-09-13T13:35:35.961Z,716
2018-09-13T13:36:36.119Z,772
2018-09-13T13:37:36.323Z,1108
2018-09-13T13:38:35.968Z,1160
2018-09-13T13:39:35.962Z,1072
2018-09-13T13:40:35.978Z,908
2018-09-13T13:41:35.929Z,772
2018-09-13T13:42:36.073Z,728
2018-09-13T13:43:36.384Z,728
2018-09-13T13:44:35.972Z,1040
2018-09-13T13:45:36.046Z,464
2018-09-13T13:46:35.941Z,496
2018-09-13T13:47:36.021Z,512
2018-09-13T13:48:35.985Z,648
2018-09-13T13:49:37.655Z,896
2018-09-13T13:50:36.062Z,676
2018-09-13T13:51:36.035Z,824
2018-09-13T13:52:36.049Z,640
2018-09-13T13:53:36.013Z,676
2018-09-13T13:54:36.023Z,560
2018-09-13T13:55:36.596Z,604
2018-09-13T13:56:36.008Z,496
2018-09-13T13:57:36.276Z,472
2018-09-13T13:58:35.980Z,464
2018-09-13T13:59:35.985Z,500
2018-09-13T14:00:36.046Z,548
2018-09-13T14:01:36.460Z,476
2018-09-13T14:02:35.976Z,496
2018-09-13T14:03:36.006Z,520
2018-09-13T14:04:35.991Z,452
2018-09-13T14:05:36.005Z,432
2018-09-13T14:06:35.974Z,428
2018-09-13T14:07:36.339Z,432
2018-09-13T14:08:36.072Z,440
2018-09-13T14:09:36.137Z,420
2018-09-13T14:10:36.052Z,408
2018-09-13T14:11:36.606Z,420
2018-09-13T14:12:36.052Z,444
2018-09-13T14:13:36.320Z,468
2018-09-13T14:14:36.095Z,484
2018-09-13T14:15:36.061Z,504
2018-09-13T14:16:36.038Z,632
2018-09-13T14:17:36.100Z,536
2018-09-13T14:18:36.120Z,704
2018-09-13T14:19:38.471Z,556
2018-09-13T14:20:36.434Z,512
2018-09-13T14:21:36.058Z,476
2018-09-13T14:22:36.037Z,480
2018-09-13T14:32:12.503Z,480
2018-09-13T14:32:24.866Z,472
2018-09-13T14:33:24.836Z,464
2018-09-13T14:34:24.841Z,440
2018-09-13T14:35:24.868Z,428
2018-09-13T14:36:24.768Z,420
2018-09-13T14:37:26.179Z,404
2018-09-13T14:38:25.114Z,388
2018-09-13T14:39:24.792Z,372
2018-09-13T14:40:24.881Z,360
2018-09-13T14:41:24.970Z,352
2018-09-13T14:42:24.840Z,348
2018-09-13T14:43:24.803Z,336
2018-09-13T14:44:24.988Z,340
2018-09-13T14:45:24.972Z,348
2018-09-13T14:46:24.900Z,356
2018-09-13T14:47:24.983Z,428
2018-09-13T14:48:24.842Z,364
2018-09-13T14:49:25.231Z,396
2018-09-13T14:50:25.118Z,400
2018-09-13T14:51:24.847Z,820
2018-09-13T14:52:24.833Z,576
2018-09-13T14:53:25.146Z,520
2018-09-13T14:54:24.881Z,512
2018-09-13T14:55:25.095Z,388
2018-09-13T14:56:25.309Z,340
2018-09-13T14:57:25.026Z,424
2018-09-13T14:58:24.860Z,368
2018-09-13T14:59:24.839Z,312
2018-09-13T15:00:24.873Z,276
2018-09-13T15:01:25.209Z,256
2018-09-13T15:02:24.823Z,240
2018-09-13T15:03:25.139Z,228
2018-09-13T15:04:24.974Z,228
2018-09-13T15:05:25.163Z,228
2018-09-13T15:06:24.811Z,240
2018-09-13T15:07:25.406Z,260
2018-09-13T15:08:25.211Z,280
2018-09-13T15:09:24.948Z,276
2018-09-13T15:12:31.970Z,256
2018-09-13T15:12:45.577Z,256
2018-09-13T15:13:44.721Z,256
2018-09-13T15:14:44.395Z,260
2018-09-13T15:15:44.282Z,284
2018-09-13T15:16:44.344Z,296
2018-09-13T15:17:44.282Z,484
2018-09-13T15:18:44.404Z,632
2018-09-13T15:19:44.659Z,484
2018-09-13T15:20:44.311Z,376
2018-09-13T15:21:44.301Z,320
2018-09-13T15:22:48.164Z,320
2018-09-13T15:23:45.615Z,344
2018-09-13T15:24:46.086Z,312
2018-09-13T15:25:46.443Z,308